Weather at İncirlik Air Base

Public forecast

Using degrees Celsius for public forecast. Weather courtesy of forecast.io.

Current aviation weather report (METAR) for İncirlik Air Base

Retrieved 2020/11/27 22:20 UTC (5 minutes ago):

LTAG 272220Z 02006KT CAVOK 09/M02 Q1021 NOSIG

Aviation forecast (TAF) for İncirlik Air Base

Retrieved 2020/11/27 18:03 UTC (4 hours ago):

TAF LTAG 271640Z 2718/2818 03008KT CAVOK